Time;durP1;ratioP1;P1;durP2;ratioP2;P2;SDS_P1;SDS_P2;PMS_P1;PMS_P2;Temp;Humidity;BMP_temperature;BMP_pressure;BME280_temperature;BME280_humidity;BME280_pressure;Samples;Min_cycle;Max_cycle;Signal;HPM_P1;HPM_P2
2023/10/25 00:00:05;;;;;;;3.10;1.60;;;;;;;18.38;67.75;99208.72;5068300;28;20662;-62
2023/10/25 00:02:31;;;;;;;2.70;1.40;;;;;;;18.40;67.75;99211.16;5067915;28;20902;-62
2023/10/25 00:04:56;;;;;;;2.00;1.20;;;;;;;18.38;68.06;99205.88;5069482;28;20430;-62
2023/10/25 00:07:22;;;;;;;2.83;1.50;;;;;;;18.39;67.83;99207.50;5068933;28;20171;-62
2023/10/25 00:09:48;;;;;;;2.57;1.27;;;;;;;18.38;67.75;99200.16;5062066;28;20187;-62
2023/10/25 00:12:13;;;;;;;2.37;1.33;;;;;;;18.39;67.82;99201.78;5067927;28;20175;-62
2023/10/25 00:14:39;;;;;;;2.70;1.47;;;;;;;18.38;67.95;99205.88;5050306;28;20205;-61
2023/10/25 00:17:04;;;;;;;2.00;1.00;;;;;;;18.38;67.96;99205.88;5068522;28;20163;-62
2023/10/25 00:19:30;;;;;;;2.27;1.00;;;;;;;18.38;67.99;99205.88;5067204;28;20186;-62
2023/10/25 00:21:55;;;;;;;2.20;1.10;;;;;;;18.38;67.69;99202.19;5068465;28;20159;-62
2023/10/25 00:24:21;;;;;;;1.80;1.10;;;;;;;18.39;67.65;99204.66;5061560;28;20241;-62
2023/10/25 00:26:47;;;;;;;2.83;1.10;;;;;;;18.39;67.93;99195.25;5068607;28;20202;-62
2023/10/25 00:29:13;;;;;;;2.60;1.30;;;;;;;18.38;67.89;99194.44;5068545;28;20499;-61
2023/10/25 00:31:38;;;;;;;2.17;1.10;;;;;;;18.37;67.93;99191.97;5069320;28;20191;-63
2023/10/25 00:34:04;;;;;;;2.10;1.40;;;;;;;18.37;67.91;99192.78;5069386;28;20179;-62
2023/10/25 00:36:29;;;;;;;1.90;1.20;;;;;;;18.36;67.90;99201.78;5069712;28;20248;-62
2023/10/25 00:38:55;;;;;;;2.43;1.40;;;;;;;18.37;67.79;99201.34;5068559;28;20186;-62
2023/10/25 00:41:20;;;;;;;2.33;1.20;;;;;;;18.38;67.72;99211.59;5069343;28;20187;-62
2023/10/25 00:43:46;;;;;;;2.07;1.30;;;;;;;18.37;68.05;99204.22;5069183;28;20175;-62
2023/10/25 00:46:12;;;;;;;2.20;1.10;;;;;;;18.36;67.97;99208.31;5068012;28;20190;-62
2023/10/25 00:48:45;;;;;;;3.10;1.13;;;;;;;18.36;67.93;99213.22;5051415;28;20203;-62
2023/10/25 00:51:11;;;;;;;1.93;1.17;;;;;;;18.35;67.77;99209.53;5065269;28;20905;-62
2023/10/25 00:53:46;;;;;;;1.77;1.13;;;;;;;18.36;67.82;99221.78;5048176;28;20440;-62
2023/10/25 00:56:11;;;;;;;1.93;1.07;;;;;;;18.36;67.99;99214.00;5055101;28;20484;-62
2023/10/25 00:58:38;;;;;;;1.87;1.13;;;;;;;18.35;68.14;99206.66;5049039;28;20487;-62
2023/10/25 01:01:03;;;;;;;1.80;1.00;;;;;;;18.33;68.17;99217.69;5070506;28;20182;-62
2023/10/25 01:03:29;;;;;;;2.10;1.10;;;;;;;18.35;68.04;99209.53;5054486;28;20855;-62
2023/10/25 01:05:54;;;;;;;2.23;1.20;;;;;;;18.35;67.87;99203.81;5058277;28;20836;-62
2023/10/25 01:08:20;;;;;;;1.57;0.87;;;;;;;18.37;67.83;99203.41;5053744;28;20311;-61
2023/10/25 01:10:49;;;;;;;1.60;0.90;;;;;;;18.34;67.73;99196.47;5071803;28;20177;-62
2023/10/25 01:13:15;;;;;;;2.00;1.07;;;;;;;18.36;67.63;99196.88;5071133;28;20479;-62
2023/10/25 01:15:40;;;;;;;1.80;1.00;;;;;;;18.34;67.69;99205.03;5071701;28;20453;-62
2023/10/25 01:18:05;;;;;;;1.80;1.00;;;;;;;18.35;67.60;99206.66;5070890;28;20183;-62
2023/10/25 01:20:32;;;;;;;3.10;1.00;;;;;;;18.37;67.97;99198.50;5071768;28;20227;-62
2023/10/25 01:22:57;;;;;;;2.43;1.20;;;;;;;18.36;68.01;99190.34;5066916;28;20202;-62
2023/10/25 01:25:23;;;;;;;2.00;1.20;;;;;;;18.34;68.00;99193.63;5071579;28;20444;-62
2023/10/25 01:27:48;;;;;;;2.10;0.93;;;;;;;18.32;67.87;99189.50;5072712;28;20207;-62
2023/10/25 01:30:13;;;;;;;2.10;1.20;;;;;;;18.34;67.95;99189.94;5072905;28;20171;-62
2023/10/25 01:32:39;;;;;;;1.80;1.00;;;;;;;18.34;68.06;99189.94;5071357;28;20220;-62
2023/10/25 01:35:05;;;;;;;2.17;1.13;;;;;;;18.34;67.74;99184.22;5072359;28;20672;-62
2023/10/25 01:37:30;;;;;;;2.20;1.50;;;;;;;18.31;67.92;99182.94;5060609;28;20179;-62
2023/10/25 01:39:56;;;;;;;2.80;1.00;;;;;;;18.33;67.90;99172.00;5052536;28;20841;-62
2023/10/25 01:42:21;;;;;;;2.93;1.17;;;;;;;18.31;67.73;99170.72;5064625;28;20781;-62
2023/10/25 01:44:47;;;;;;;2.63;1.10;;;;;;;18.31;68.14;99165.81;5054190;28;20638;-62
2023/10/25 01:47:12;;;;;;;1.90;1.03;;;;;;;18.31;67.93;99165.81;5069801;28;20183;-62
2023/10/25 01:49:38;;;;;;;1.80;1.10;;;;;;;18.31;67.83;99160.09;5070672;28;20272;-62
2023/10/25 01:52:03;;;;;;;1.80;1.00;;;;;;;18.32;67.96;99156.03;5072380;28;20229;-62
2023/10/25 01:54:29;;;;;;;1.87;1.20;;;;;;;18.32;67.84;99160.94;5066540;28;20190;-62
2023/10/25 01:56:54;;;;;;;2.47;1.53;;;;;;;18.31;68.06;99154.38;5067576;28;20183;-61
2023/10/25 01:59:20;;;;;;;2.53;1.10;;;;;;;18.31;68.18;99148.66;5053340;28;20250;-62
2023/10/25 02:01:45;;;;;;;1.90;0.80;;;;;;;18.29;67.84;99142.56;5056482;28;20190;-62
2023/10/25 02:04:11;;;;;;;1.80;0.80;;;;;;;18.31;67.55;99137.25;5070960;28;20175;-62
2023/10/25 02:06:36;;;;;;;2.33;1.10;;;;;;;18.30;68.01;99129.06;5069588;28;20538;-62
2023/10/25 02:09:02;;;;;;;2.00;1.00;;;;;;;18.28;67.89;99126.66;5052785;28;20691;-62
2023/10/25 02:11:28;;;;;;;1.93;1.03;;;;;;;18.30;67.94;99123.34;5070065;28;20175;-62
2023/10/25 02:13:53;;;;;;;2.10;1.20;;;;;;;18.29;67.69;99127.44;5070800;28;20971;-62
2023/10/25 02:16:19;;;;;;;2.23;1.10;;;;;;;18.29;67.58;99122.56;5051394;28;20186;-62
2023/10/25 02:18:44;;;;;;;2.13;1.00;;;;;;;18.28;67.93;99120.09;5056782;28;20187;-62
2023/10/25 02:21:10;;;;;;;1.60;1.00;;;;;;;18.27;67.83;99113.56;5051696;28;20238;-62
2023/10/25 02:23:35;;;;;;;1.70;1.00;;;;;;;18.29;68.10;99114.00;5063413;28;20197;-62
2023/10/25 02:26:01;;;;;;;2.60;1.00;;;;;;;18.29;67.99;99116.00;5071853;28;20199;-62
2023/10/25 02:28:26;;;;;;;1.77;0.90;;;;;;;18.27;67.84;99118.47;5070766;28;20199;-62
2023/10/25 02:30:52;;;;;;;2.40;1.27;;;;;;;18.27;67.88;99122.13;5070828;28;20183;-62
2023/10/25 02:33:17;;;;;;;1.50;0.83;;;;;;;18.28;67.88;99120.09;5052712;28;20187;-62
2023/10/25 02:35:43;;;;;;;1.80;0.87;;;;;;;18.28;67.74;99120.09;5070686;28;20182;-62
2023/10/25 02:38:08;;;;;;;2.03;1.00;;;;;;;18.26;68.43;99116.84;5069513;28;20179;-62
2023/10/25 02:40:37;;;;;;;1.70;0.90;;;;;;;18.27;67.59;99113.56;5070516;28;20167;-62
2023/10/25 02:43:02;;;;;;;2.57;1.00;;;;;;;18.26;67.88;99111.94;5070660;28;20603;-62
2023/10/25 02:45:27;;;;;;;2.07;1.20;;;;;;;18.25;68.10;99120.91;5070509;28;20424;-62
2023/10/25 02:47:54;;;;;;;2.40;1.30;;;;;;;18.26;67.67;99119.72;5070361;28;20264;-62
2023/10/25 02:50:20;;;;;;;1.87;1.10;;;;;;;18.27;68.16;99119.28;5053131;28;20187;-62
2023/10/25 02:52:48;;;;;;;2.07;1.13;;;;;;;18.28;67.51;99120.94;5070976;28;20430;-62
2023/10/25 02:55:15;;;;;;;1.70;0.97;;;;;;;18.27;67.71;99107.03;5070527;28;20187;-62
2023/10/25 02:57:41;;;;;;;1.70;1.10;;;;;;;18.24;67.47;99097.25;5067890;28;20499;-62
2023/10/25 03:00:08;;;;;;;1.90;1.10;;;;;;;18.23;67.89;99104.19;5069592;28;20764;-62
2023/10/25 03:02:33;;;;;;;2.07;1.23;;;;;;;18.28;67.72;99109.50;5051152;28;20441;-62
2023/10/25 03:04:58;;;;;;;1.60;1.00;;;;;;;18.26;67.64;99102.56;5070305;28;20413;-62
2023/10/25 03:07:24;;;;;;;2.07;1.33;;;;;;;18.24;68.06;99102.97;5066311;28;20179;-62
2023/10/25 03:09:49;;;;;;;2.77;1.40;;;;;;;18.26;67.66;99105.41;5052742;28;20182;-62
2023/10/25 03:12:15;;;;;;;1.57;0.80;;;;;;;18.23;67.69;99095.63;5070692;28;20179;-62
2023/10/25 03:14:40;;;;;;;2.43;1.20;;;;;;;18.23;68.08;99095.63;5069589;28;20677;-62
2023/10/25 03:17:06;;;;;;;1.97;1.00;;;;;;;18.24;67.71;99097.25;5070291;28;20190;-62
2023/10/25 03:19:31;;;;;;;1.87;1.10;;;;;;;18.23;67.53;99089.91;5070401;28;20214;-62
2023/10/25 03:21:57;;;;;;;2.00;1.13;;;;;;;18.23;67.90;99081.34;5069794;28;20187;-62
2023/10/25 03:24:23;;;;;;;1.80;1.00;;;;;;;18.22;67.85;99082.53;5070423;28;20258;-62
2023/10/25 03:26:48;;;;;;;2.30;1.30;;;;;;;18.22;67.92;99068.25;5069425;28;20532;-62
2023/10/25 03:29:14;;;;;;;2.73;1.10;;;;;;;18.22;67.68;99064.59;5065843;28;20207;-62
2023/10/25 03:31:40;;;;;;;1.87;0.90;;;;;;;18.21;68.03;99058.06;5069682;28;20183;-62
2023/10/25 03:34:05;;;;;;;1.93;1.20;;;;;;;18.22;67.93;99059.69;5069416;28;20607;-62
2023/10/25 03:36:30;;;;;;;1.90;1.00;;;;;;;18.24;67.64;99062.97;5069459;28;20189;-62
2023/10/25 03:38:56;;;;;;;1.93;1.03;;;;;;;18.23;67.79;99060.53;5069878;28;20163;-62
2023/10/25 03:41:22;;;;;;;1.97;1.03;;;;;;;18.23;67.68;99067.06;5069129;28;20186;-62
2023/10/25 03:43:47;;;;;;;2.03;1.03;;;;;;;18.23;67.54;99060.53;5051463;28;20182;-62
2023/10/25 03:46:12;;;;;;;3.53;1.13;;;;;;;18.22;67.78;99059.69;5069580;28;20243;-62
2023/10/25 03:48:38;;;;;;;1.73;1.07;;;;;;;18.22;67.77;99059.69;5067569;28;20265;-62
2023/10/25 03:51:04;;;;;;;2.40;0.93;;;;;;;18.23;67.72;99054.81;5068196;28;20183;-62
2023/10/25 03:53:30;;;;;;;1.97;1.10;;;;;;;18.21;67.86;99046.63;5068648;28;20190;-62
2023/10/25 03:55:55;;;;;;;2.33;1.33;;;;;;;18.22;67.82;99048.25;5049731;28;20492;-63
2023/10/25 03:58:24;;;;;;;1.90;1.00;;;;;;;18.23;67.53;99046.22;5067035;28;20205;-63
2023/10/25 04:00:58;;;;;;;1.93;1.00;;;;;;;18.22;67.75;99045.41;5054428;28;20239;-62
2023/10/25 04:03:23;;;;;;;1.80;1.10;;;;;;;18.21;67.57;99040.94;5047195;28;20790;-62
2023/10/25 04:05:49;;;;;;;1.70;0.90;;;;;;;18.21;67.73;99034.41;5065695;28;20432;-62
2023/10/25 04:08:14;;;;;;;2.27;1.30;;;;;;;18.22;67.60;99042.56;5068055;28;20211;-62
2023/10/25 04:10:40;;;;;;;1.60;0.90;;;;;;;18.24;67.66;99033.56;5069602;28;20178;-61
2023/10/25 04:13:05;;;;;;;2.00;0.90;;;;;;;18.23;67.46;99023.38;5069501;28;20178;-62
2023/10/25 04:15:34;;;;;;;3.03;0.97;;;;;;;18.20;67.52;99025.00;5069494;28;20198;-62
2023/10/25 04:18:00;;;;;;;3.50;1.10;;;;;;;18.22;67.90;99018.91;5068334;28;20183;-62
2023/10/25 04:20:31;;;;;;;2.20;1.03;;;;;;;18.21;67.30;99009.50;5069267;28;20500;-62
2023/10/25 04:22:56;;;;;;;1.90;0.90;;;;;;;18.22;67.53;99005.41;5068182;28;20548;-62
2023/10/25 04:25:22;;;;;;;1.90;1.00;;;;;;;18.21;67.75;99003.78;5069041;28;20429;-62
2023/10/25 04:27:47;;;;;;;1.63;0.90;;;;;;;18.19;67.75;99003.41;5069277;28;20198;-62
2023/10/25 04:30:13;;;;;;;1.60;0.80;;;;;;;18.19;67.71;99002.56;5067118;28;20186;-62
2023/10/25 04:32:38;;;;;;;2.00;0.80;;;;;;;18.19;67.76;98997.69;5069727;28;20221;-62
2023/10/25 04:35:04;;;;;;;1.30;0.70;;;;;;;18.20;67.77;98993.59;5069509;28;20479;-62
2023/10/25 04:37:29;;;;;;;2.03;1.10;;;;;;;18.19;67.72;98974.84;5069287;28;20170;-62
2023/10/25 04:39:55;;;;;;;1.80;1.10;;;;;;;18.18;67.77;98970.34;5068357;28;20201;-62
2023/10/25 04:42:20;;;;;;;1.50;0.80;;;;;;;18.20;67.71;98970.75;5069347;28;20167;-62
2023/10/25 04:44:46;;;;;;;1.70;0.90;;;;;;;18.20;67.52;98969.91;5069367;28;20213;-62
2023/10/25 04:47:13;;;;;;;2.17;1.00;;;;;;;18.19;67.68;98963.41;5068468;28;20217;-62
2023/10/25 04:49:39;;;;;;;2.63;1.03;;;;;;;18.21;67.67;98974.44;5050302;28;20207;-62
2023/10/25 04:52:04;;;;;;;1.97;0.97;;;;;;;18.21;67.70;98972.38;5067913;28;20916;-62
2023/10/25 04:54:30;;;;;;;1.70;1.03;;;;;;;18.21;67.53;98968.72;5039048;28;20171;-62
2023/10/25 04:56:57;;;;;;;2.63;1.10;;;;;;;18.19;67.52;98960.56;5067384;28;20172;-61
2023/10/25 04:59:23;;;;;;;1.60;1.10;;;;;;;18.19;67.52;98948.28;5035486;28;20179;-62
2023/10/25 05:01:48;;;;;;;2.10;1.00;;;;;;;18.18;67.86;98953.22;5067103;28;20444;-62
2023/10/25 05:04:13;;;;;;;1.80;0.87;;;;;;;18.20;67.62;98953.59;5068540;28;20843;-62
2023/10/25 05:06:39;;;;;;;1.97;1.10;;;;;;;18.18;67.52;98950.34;5069354;28;20172;-62
2023/10/25 05:09:05;;;;;;;1.67;1.00;;;;;;;18.17;67.80;98948.69;5069054;28;20299;-62
2023/10/25 05:11:30;;;;;;;1.93;0.90;;;;;;;18.18;67.40;98950.34;5063595;28;20182;-62
2023/10/25 05:13:56;;;;;;;2.07;1.13;;;;;;;18.19;67.34;98939.72;5049827;28;20175;-62
2023/10/25 05:16:22;;;;;;;2.10;1.00;;;;;;;18.18;67.51;98927.50;5068112;28;20172;-62
2023/10/25 05:18:48;;;;;;;1.90;1.00;;;;;;;18.17;67.77;98928.72;5067280;28;20258;-62
2023/10/25 05:21:16;;;;;;;1.60;0.90;;;;;;;18.18;67.49;98927.50;5067589;28;20219;-62
2023/10/25 05:23:42;;;;;;;2.00;1.00;;;;;;;18.18;67.56;98921.78;5037657;28;20183;-62
2023/10/25 05:26:08;;;;;;;1.77;0.90;;;;;;;18.18;67.62;98913.22;5064325;28;20456;-62
2023/10/25 05:28:34;;;;;;;1.80;0.93;;;;;;;18.19;67.36;98903.41;5068915;28;20456;-62
2023/10/25 05:31:01;;;;;;;1.50;0.80;;;;;;;18.18;67.43;98898.13;5068142;28;20830;-62
2023/10/25 05:33:27;;;;;;;1.90;0.90;;;;;;;18.19;67.48;98899.75;5068978;28;20168;-62
2023/10/25 05:35:53;;;;;;;1.97;0.83;;;;;;;18.16;67.40;98892.81;5050365;28;20424;-62
2023/10/25 05:38:19;;;;;;;3.13;1.60;;;;;;;18.17;67.47;98897.28;5068610;28;20175;-62
2023/10/25 05:40:44;;;;;;;2.70;1.23;;;;;;;18.18;67.40;98904.66;5069348;28;20187;-62
2023/10/25 05:43:13;;;;;;;1.70;1.00;;;;;;;18.17;67.48;98891.56;5071520;28;20619;-62
2023/10/25 05:45:39;;;;;;;1.80;1.03;;;;;;;18.17;67.28;98890.78;5053080;28;20179;-62
2023/10/25 05:48:09;;;;;;;1.60;0.80;;;;;;;18.17;67.67;98893.63;5071177;28;20452;-62
2023/10/25 05:50:36;;;;;;;1.70;0.97;;;;;;;18.17;67.36;98896.50;5066105;28;20512;-62
2023/10/25 05:53:01;;;;;;;2.13;1.00;;;;;;;18.17;67.27;98890.78;5065623;28;20456;-62
2023/10/25 05:55:27;;;;;;;1.90;0.90;;;;;;;18.16;67.79;98883.44;5070708;28;20421;-62
2023/10/25 05:57:53;;;;;;;1.60;0.80;;;;;;;18.17;67.42;98882.22;5051316;28;20186;-63
2023/10/25 06:00:19;;;;;;;2.13;1.10;;;;;;;18.19;67.54;98874.03;5071209;28;20202;-62
2023/10/25 06:02:45;;;;;;;2.00;1.20;;;;;;;18.18;67.08;98873.22;5071800;28;20214;-62
2023/10/25 06:05:12;;;;;;;2.27;1.03;;;;;;;18.19;67.26;98866.28;5071122;28;20562;-62
2023/10/25 06:07:38;;;;;;;2.57;1.20;;;;;;;18.18;67.40;98863.84;5074129;28;20225;-62
2023/10/25 06:10:05;;;;;;;1.87;0.87;;;;;;;18.17;67.86;98857.31;5072365;28;20441;-62
2023/10/25 06:12:31;;;;;;;1.90;1.00;;;;;;;18.17;67.69;98863.00;5071741;28;20171;-62
2023/10/25 06:14:57;;;;;;;2.20;1.10;;;;;;;18.18;67.38;98864.66;5070773;28;20449;-62
2023/10/25 06:17:22;;;;;;;1.90;1.20;;;;;;;18.18;67.35;98866.69;5070906;28;20272;-62
2023/10/25 06:19:47;;;;;;;1.70;0.90;;;;;;;18.18;67.22;98858.94;5069189;28;20231;-62
2023/10/25 06:22:13;;;;;;;1.77;0.90;;;;;;;18.16;67.23;98849.97;5068950;28;20190;-62
2023/10/25 06:24:38;;;;;;;2.27;1.00;;;;;;;18.18;67.25;98856.09;5049711;28;20180;-62
2023/10/25 06:27:04;;;;;;;1.87;1.00;;;;;;;18.17;67.50;98856.50;5049598;28;20180;-61
2023/10/25 06:29:29;;;;;;;1.70;1.00;;;;;;;18.17;67.34;98845.88;5064795;28;20285;-61
2023/10/25 06:31:55;;;;;;;1.70;1.00;;;;;;;18.17;67.24;98857.31;5069146;28;20245;-63
2023/10/25 06:34:20;;;;;;;1.80;1.00;;;;;;;18.18;67.19;98853.25;5070693;28;20179;-63
2023/10/25 06:36:47;;;;;;;1.60;0.90;;;;;;;18.17;67.28;98851.59;5071115;28;20262;-62
2023/10/25 06:39:12;;;;;;;1.90;0.93;;;;;;;18.16;67.31;98847.09;5070100;28;20627;-62
2023/10/25 06:41:38;;;;;;;1.60;0.90;;;;;;;18.19;67.04;98842.63;5052666;28;20483;-62
2023/10/25 06:44:04;;;;;;;1.80;0.90;;;;;;;18.17;67.14;98834.44;5070161;28;20197;-63
2023/10/25 06:46:30;;;;;;;1.77;0.80;;;;;;;18.17;67.47;98834.44;5062373;28;20627;-63
2023/10/25 06:48:58;;;;;;;2.07;1.17;;;;;;;18.17;67.41;98839.38;5045665;28;20485;-62
2023/10/25 06:51:23;;;;;;;1.70;0.83;;;;;;;18.16;67.10;98832.03;5051311;28;20557;-62
2023/10/25 06:53:49;;;;;;;1.63;0.80;;;;;;;18.17;67.26;98828.72;5069322;28;20433;-62
2023/10/25 06:56:15;;;;;;;1.63;0.80;;;;;;;18.15;67.26;98833.22;5070086;28;20198;-62
2023/10/25 06:58:41;;;;;;;1.63;0.90;;;;;;;18.16;67.52;98820.59;5053142;28;20175;-63
2023/10/25 07:01:06;;;;;;;1.80;1.00;;;;;;;18.15;67.29;98825.50;5068342;28;20940;-62
2023/10/25 07:03:34;;;;;;;1.83;0.90;;;;;;;18.16;67.21;98818.53;5069047;28;20183;-63
2023/10/25 07:06:03;;;;;;;1.50;0.90;;;;;;;18.16;67.27;98818.53;5069223;28;20187;-63
2023/10/25 07:08:29;;;;;;;1.50;0.90;;;;;;;18.17;67.37;98814.47;5050832;28;20485;-63
2023/10/25 07:10:55;;;;;;;1.60;0.80;;;;;;;18.16;67.11;98814.91;5050908;28;20411;-63
2023/10/25 07:13:20;;;;;;;1.53;0.90;;;;;;;18.19;67.30;98806.31;5050956;28;20418;-63
2023/10/25 07:15:47;;;;;;;2.00;1.00;;;;;;;18.17;67.17;98796.53;5057927;28;20237;-63
2023/10/25 07:18:12;;;;;;;1.77;1.07;;;;;;;18.17;67.21;98802.22;5070126;28;20594;-62
2023/10/25 07:20:38;;;;;;;1.60;0.90;;;;;;;18.18;67.12;98801.81;5070518;28;20499;-63
2023/10/25 07:23:04;;;;;;;1.50;0.73;;;;;;;18.17;67.23;98794.47;5070751;28;20190;-63
2023/10/25 07:25:30;;;;;;;1.80;0.90;;;;;;;18.17;67.36;98785.88;5069211;28;20196;-63
2023/10/25 07:27:55;;;;;;;1.73;0.90;;;;;;;18.19;67.20;98786.31;5070061;28;20433;-62
2023/10/25 07:30:21;;;;;;;1.60;0.80;;;;;;;18.18;67.30;98783.88;5066891;28;20198;-63
2023/10/25 07:32:47;;;;;;;1.63;0.80;;;;;;;18.17;67.24;98771.63;5069107;28;20199;-63
2023/10/25 07:35:12;;;;;;;2.27;0.83;;;;;;;18.20;67.04;98776.50;5069975;28;20414;-64
2023/10/25 07:37:38;;;;;;;1.80;0.90;;;;;;;18.18;67.22;98781.84;5068231;28;20187;-67
2023/10/25 07:40:07;;;;;;;1.97;1.30;;;;;;;18.15;66.54;98774.09;5068737;28;20559;-63
2023/10/25 07:42:32;;;;;;;12.47;2.10;;;;;;;18.21;66.23;98772.41;5067964;28;20244;-63
2023/10/25 07:44:58;;;;;;;5.03;1.80;;;;;;;18.21;66.34;98771.63;5069008;28;20885;-63
2023/10/25 07:47:23;;;;;;;10.20;1.93;;;;;;;18.23;66.70;98772.81;5067950;28;20797;-62
2023/10/25 07:49:49;;;;;;;14.93;3.00;;;;;;;18.26;66.39;98760.56;5068267;28;20345;-63
2023/10/25 07:52:15;;;;;;;15.33;2.13;;;;;;;18.27;66.75;98770.75;5050710;28;20175;-63
2023/10/25 07:54:41;;;;;;;11.27;2.37;;;;;;;18.21;66.52;98761.00;5069199;28;20190;-62
2023/10/25 07:57:06;;;;;;;15.57;3.53;;;;;;;18.19;65.81;98757.75;5051955;28;20417;-62
2023/10/25 07:59:32;;;;;;;34.07;4.77;;;;;;;18.17;66.22;98763.03;5065010;28;20267;-63
2023/10/25 08:01:57;;;;;;;17.13;3.50;;;;;;;18.16;66.44;98767.13;5068363;28;20218;-63
2023/10/25 08:04:23;;;;;;;12.83;3.37;;;;;;;18.15;66.67;98765.50;5067896;28;20268;-62
2023/10/25 08:06:48;;;;;;;18.30;3.80;;;;;;;18.16;66.72;98763.47;5069860;28;20623;-63
2023/10/25 08:09:14;;;;;;;21.60;3.60;;;;;;;18.14;66.82;98755.31;5068829;28;20211;-63
2023/10/25 08:11:39;;;;;;;18.47;2.70;;;;;;;18.13;67.08;98762.28;5069697;28;20626;-62
2023/10/25 08:14:05;;;;;;;17.67;2.80;;;;;;;18.13;67.23;98762.28;5050411;28;20218;-62
2023/10/25 08:16:30;;;;;;;13.07;2.67;;;;;;;18.12;67.20;98757.75;5068015;28;20190;-62
2023/10/25 08:18:56;;;;;;;13.93;3.13;;;;;;;18.14;67.36;98758.19;5069167;28;20187;-62
2023/10/25 08:21:21;;;;;;;10.10;2.53;;;;;;;18.15;67.59;98756.94;5069445;28;20242;-63
2023/10/25 08:23:51;;;;;;;14.07;2.70;;;;;;;18.14;67.26;98751.66;5068198;28;20252;-63
2023/10/25 08:26:21;;;;;;;20.77;3.30;;;;;;;18.14;67.46;98743.06;5069738;28;20680;-63
2023/10/25 08:28:47;;;;;;;14.07;2.60;;;;;;;18.15;67.78;98744.69;5050544;28;20483;-62
2023/10/25 08:31:13;;;;;;;11.20;3.17;;;;;;;18.12;67.74;98732.06;5068920;28;20421;-62
2023/10/25 08:33:38;;;;;;;15.03;3.80;;;;;;;18.14;67.47;98735.34;5068182;28;20167;-62
2023/10/25 08:36:05;;;;;;;15.70;2.67;;;;;;;18.14;67.54;98738.19;5067456;28;20677;-63
2023/10/25 08:38:31;;;;;;;12.80;2.83;;;;;;;18.18;67.55;98732.44;5068474;28;20505;-62
2023/10/25 08:41:06;;;;;;;20.70;2.60;;;;;;;18.13;67.98;98725.16;5068221;28;20440;-63
2023/10/25 08:43:35;;;;;;;22.10;3.20;;;;;;;18.13;67.73;98730.84;5049049;28;20247;-63
2023/10/25 08:46:04;;;;;;;12.43;3.20;;;;;;;18.16;67.95;98737.78;5067896;28;20444;-62
2023/10/25 08:48:30;;;;;;;13.03;2.97;;;;;;;18.16;67.77;98730.00;5068305;28;20964;-63
2023/10/25 08:50:56;;;;;;;10.07;3.17;;;;;;;18.16;68.05;98732.84;5069362;28;20431;-62
2023/10/25 08:53:25;;;;;;;18.00;2.70;;;;;;;18.16;67.77;98720.63;5064537;28;20201;-63
2023/10/25 08:55:51;;;;;;;18.37;3.00;;;;;;;18.16;68.01;98727.16;5068960;28;20282;-63
2023/10/25 08:58:18;;;;;;;12.87;3.00;;;;;;;18.15;67.80;98714.09;5065446;28;20476;-63
2023/10/25 09:00:43;;;;;;;13.43;2.33;;;;;;;18.14;68.18;98712.47;5069261;28;20437;-63
2023/10/25 09:03:13;;;;;;;10.53;3.37;;;;;;;18.15;67.99;98710.41;5069187;28;20394;-63
2023/10/25 09:05:41;;;;;;;16.70;2.93;;;;;;;18.14;68.16;98692.50;5033884;28;20650;-63
2023/10/25 09:08:15;;;;;;;8.53;2.27;;;;;;;18.14;68.19;98694.53;5065104;28;20869;-63
2023/10/25 09:10:40;;;;;;;12.60;2.37;;;;;;;18.16;68.29;98692.09;5067857;28;20440;-63
2023/10/25 09:13:13;;;;;;;11.70;2.67;;;;;;;18.15;68.31;98687.56;5068250;28;20433;-63
2023/10/25 09:15:39;;;;;;;14.13;2.77;;;;;;;18.15;68.41;98671.25;5070140;28;20202;-63
2023/10/25 09:18:04;;;;;;;17.10;2.33;;;;;;;18.15;68.09;98670.44;5072068;28;20433;-63
2023/10/25 09:20:30;;;;;;;11.07;2.37;;;;;;;18.16;68.20;98670.03;5072615;28;20237;-63
2023/10/25 09:23:11;;;;;;;11.30;1.90;;;;;;;18.17;67.89;98668.78;5071795;28;20270;-63
2023/10/25 09:25:37;;;;;;;8.13;2.37;;;;;;;18.15;68.42;98656.97;5072074;28;20233;-63
2023/10/25 09:28:27;;;;;;;8.73;2.40;;;;;;;18.18;68.06;98652.47;5072238;28;20441;-63
2023/10/25 09:30:57;;;;;;;11.13;2.80;;;;;;;18.17;68.35;98645.94;5052489;28;20189;-63
2023/10/25 09:33:22;;;;;;;8.53;3.33;;;;;;;18.17;68.41;98648.00;5068230;28;20436;-63
2023/10/25 09:35:49;;;;;;;12.93;2.60;;;;;;;18.16;68.13;98637.81;5070410;28;20487;-63
2023/10/25 09:38:15;;;;;;;10.70;2.83;;;;;;;18.14;68.09;98641.09;5053539;28;20183;-63
2023/10/25 09:40:43;;;;;;;9.80;2.47;;;;;;;18.17;68.25;98640.22;5070340;28;20493;-63
2023/10/25 09:43:15;;;;;;;10.17;2.87;;;;;;;18.17;68.08;98637.38;5054017;28;20950;-63
2023/10/25 09:45:40;;;;;;;5.70;2.60;;;;;;;18.17;68.13;98623.09;5072384;28;20421;-63
2023/10/25 09:48:05;;;;;;;10.43;1.87;;;;;;;18.14;68.29;98618.22;5071413;28;20531;-63
2023/10/25 09:50:37;;;;;;;7.63;2.27;;;;;;;18.16;68.69;98609.25;5071838;28;20186;-63
2023/10/25 09:53:10;;;;;;;9.77;2.50;;;;;;;18.16;68.20;98601.47;5033707;28;20198;-63
2023/10/25 09:55:35;;;;;;;9.10;2.40;;;;;;;18.16;68.19;98592.91;5053137;28;20786;-63
2023/10/25 09:58:01;;;;;;;7.37;2.57;;;;;;;18.17;68.36;98590.88;5036476;28;20427;-63
2023/10/25 10:00:27;;;;;;;8.33;2.20;;;;;;;18.18;68.12;98583.94;5071585;28;20917;-62
2023/10/25 10:03:01;;;;;;;9.53;2.73;;;;;;;18.17;68.24;98593.75;5071231;28;20199;-62
2023/10/25 10:05:37;;;;;;;7.47;1.73;;;;;;;18.18;68.13;98589.63;5049774;28;20423;-62
2023/10/25 10:08:11;;;;;;;10.80;3.23;;;;;;;18.16;68.11;98586.41;5017060;28;20842;-62
2023/10/25 10:10:44;;;;;;;11.87;2.70;;;;;;;18.17;67.98;98588.03;5050746;28;21009;-62
2023/10/25 10:13:20;;;;;;;9.47;2.33;;;;;;;18.18;68.08;98581.91;5052221;28;20457;-62
2023/10/25 10:16:05;;;;;;;7.33;1.90;;;;;;;18.18;68.30;98572.50;5052659;28;20445;-62
2023/10/25 10:18:34;;;;;;;9.43;2.00;;;;;;;18.19;68.18;98562.69;5069480;28;20473;-63
2023/10/25 10:21:07;;;;;;;8.73;2.00;;;;;;;18.17;68.25;98548.84;5052826;28;20615;-62
2023/10/25 10:23:37;;;;;;;10.17;3.10;;;;;;;18.18;68.20;98552.50;5070456;28;20449;-62
2023/10/25 10:26:02;;;;;;;7.37;1.80;;;;;;;18.18;68.44;98549.66;5069724;28;20406;-62
2023/10/25 10:28:43;;;;;;;6.63;2.17;;;;;;;18.17;68.49;98543.13;5050798;28;20952;-62
2023/10/25 10:31:12;;;;;;;8.53;1.73;;;;;;;18.18;67.90;98539.06;5069727;28;20167;-62
2023/10/25 10:33:45;;;;;;;8.20;1.90;;;;;;;18.19;68.02;98528.44;5050845;28;20451;-62
2023/10/25 10:36:11;;;;;;;4.90;1.80;;;;;;;18.21;67.96;98525.97;5069455;28;20894;-62
2023/10/25 10:39:14;;;;;;;12.47;2.40;;;;;;;18.17;68.07;98514.56;5050961;28;20448;-62
2023/10/25 10:41:40;;;;;;;7.30;2.10;;;;;;;18.17;68.22;98506.00;5070870;28;20183;-63
2023/10/25 10:44:05;;;;;;;6.97;1.70;;;;;;;18.15;68.34;98499.91;5052117;28;20453;-62
2023/10/25 10:46:31;;;;;;;6.63;2.00;;;;;;;18.18;68.21;98486.81;5071304;28;20436;-62
2023/10/25 10:49:01;;;;;;;8.30;1.83;;;;;;;18.19;68.06;98494.16;5053122;28;20215;-62
2023/10/25 10:51:27;;;;;;;9.10;2.13;;;;;;;18.17;67.87;98474.56;5055215;28;20191;-63
2023/10/25 10:53:53;;;;;;;12.03;2.37;;;;;;;18.17;68.18;98482.34;5064062;28;20445;-63
2023/10/25 10:56:18;;;;;;;6.47;1.93;;;;;;;18.20;68.05;98473.75;5070866;28;20429;-62
2023/10/25 10:58:44;;;;;;;6.13;1.90;;;;;;;18.16;68.22;98469.31;5070015;28;20183;-62
2023/10/25 11:01:09;;;;;;;5.63;1.60;;;;;;;18.16;68.33;98464.38;5052842;28;20189;-63
2023/10/25 11:03:36;;;;;;;6.07;1.80;;;;;;;18.15;68.44;98457.06;5070768;28;20560;-63
2023/10/25 11:06:03;;;;;;;7.03;1.90;;;;;;;18.18;68.31;98458.25;5059332;28;20196;-62
2023/10/25 11:08:32;;;;;;;7.40;1.83;;;;;;;18.18;68.17;98447.66;5050630;28;20457;-62
2023/10/25 11:10:57;;;;;;;4.93;2.03;;;;;;;18.18;68.19;98441.94;5050644;28;21004;-62
2023/10/25 11:13:23;;;;;;;7.97;1.97;;;;;;;18.17;68.27;98442.38;5065265;28;20425;-62
2023/10/25 11:15:48;;;;;;;5.93;2.27;;;;;;;18.17;68.49;98439.50;5070073;28;20199;-62
2023/10/25 11:18:14;;;;;;;5.97;1.50;;;;;;;18.18;68.27;98433.38;5069950;28;20753;-62
2023/10/25 11:20:39;;;;;;;5.73;1.90;;;;;;;18.19;68.04;98437.03;5068703;28;20698;-63
2023/10/25 11:23:05;;;;;;;10.23;1.70;;;;;;;18.17;68.10;98430.94;5069613;28;20646;-62
2023/10/25 11:25:31;;;;;;;4.83;1.73;;;;;;;18.17;68.03;98428.88;5064733;28;20186;-62
2023/10/25 11:27:57;;;;;;;5.03;1.70;;;;;;;18.17;68.24;98419.53;5049840;28;20221;-63